Time;durP1;ratioP1;P1;durP2;ratioP2;P2;SDS_P1;SDS_P2;PMS_P1;PMS_P2;Temp;Humidity;BMP_temperature;BMP_pressure;BME280_temperature;BME280_humidity;BME280_pressure;Samples;Min_cycle;Max_cycle;Signal;HPM_P1;HPM_P2
2023/07/23 00:00:32;;;;;;;8.23;4.43;;;16.10;99.90;;;-144.05;79.02;56853.09;5054755;28;20039;-85
2023/07/23 00:02:58;;;;;;;7.07;3.95;;;16.10;99.90;;;-144.05;79.62;56848.84;5054045;28;20029;-86
2023/07/23 00:05:25;;;;;;;9.85;4.20;;;16.10;99.90;;;-144.05;80.00;56870.06;5054981;28;20103;-85
2023/07/23 00:07:57;;;;;;;6.88;4.13;;;16.00;99.90;;;-144.05;80.22;56846.72;5053783;28;20036;-84
2023/07/23 00:10:23;;;;;;;8.18;4.00;;;16.00;99.90;;;-144.05;80.50;56850.97;5054916;28;20029;-85
2023/07/23 00:12:50;;;;;;;7.55;4.53;;;16.00;99.90;;;-144.05;80.54;56859.47;5055330;28;20507;-86
2023/07/23 00:15:16;;;;;;;12.77;4.78;;;16.00;99.90;;;-144.05;80.10;56874.31;5066592;28;20029;-86
2023/07/23 00:17:43;;;;;;;5.80;4.05;;;16.00;99.90;;;-144.05;79.04;56853.09;5068589;28;20033;-86
2023/07/23 00:20:12;;;;;;;8.27;4.28;;;15.90;99.90;;;-144.05;78.77;56870.06;5054721;28;20284;-85
2023/07/23 00:22:40;;;;;;;6.18;4.30;;;16.00;99.90;;;-144.05;78.56;56880.69;5056439;28;20029;-85
2023/07/23 00:25:08;;;;;;;5.68;3.83;;;16.00;99.90;;;-144.05;78.53;56831.84;5054147;28;20056;-83
2023/07/23 00:27:35;;;;;;;6.63;4.22;;;16.00;99.90;;;-144.05;78.82;56876.44;5051222;28;20492;-82
2023/07/23 00:30:03;;;;;;;5.80;4.57;;;16.00;99.90;;;-144.05;79.32;56882.81;5050481;28;20048;-83
2023/07/23 00:32:28;;;;;;;9.20;4.60;;;16.00;99.90;;;-144.05;79.57;56857.34;5051678;28;20036;-85
2023/07/23 00:34:54;;;;;;;9.82;4.63;;;16.00;99.90;;;-144.05;79.73;56848.84;5050198;28;20028;-83
2023/07/23 00:37:20;;;;;;;9.88;4.43;;;16.00;99.90;;;-144.05;79.46;56882.81;5074041;22;20060;-84
2023/07/23 00:39:46;;;;;;;6.47;4.57;;;16.00;99.90;;;-144.05;79.37;56859.47;5033546;28;20056;-82
2023/07/23 00:42:12;;;;;;;8.68;4.22;;;15.90;99.90;;;-144.05;78.82;56872.19;5049950;28;20029;-83
2023/07/23 00:44:38;;;;;;;5.55;3.65;;;15.90;99.90;;;-144.05;77.63;56878.56;5051336;28;20029;-83
2023/07/23 00:47:05;;;;;;;7.78;4.68;;;15.80;99.90;;;-144.05;77.06;56889.19;5052070;28;20083;-84
2023/07/23 00:49:31;;;;;;;6.97;4.38;;;15.80;99.90;;;-144.05;76.44;56863.69;5049999;28;20029;-81
2023/07/23 00:51:59;;;;;;;6.25;4.00;;;15.80;99.90;;;-144.05;76.30;56872.19;5033654;28;20029;-83
2023/07/23 00:54:25;;;;;;;7.68;4.10;;;15.90;99.90;;;-144.05;76.61;56861.56;5055781;28;20029;-84
2023/07/23 00:56:52;;;;;;;5.85;3.70;;;15.90;99.90;;;-144.05;76.19;56887.06;5057263;28;20037;-84
2023/07/23 00:59:19;;;;;;;9.65;4.00;;;15.90;99.90;;;-144.05;76.29;56876.44;5033562;28;20058;-84
2023/07/23 01:01:45;;;;;;;6.15;3.58;;;15.90;99.90;;;-144.05;76.29;56891.31;5033358;28;20056;-83
2023/07/23 01:04:11;;;;;;;7.00;4.38;;;15.90;99.90;;;-144.05;75.99;56863.69;5034518;28;20457;-83
2023/07/23 01:06:39;;;;;;;8.23;3.92;;;15.90;99.90;;;-144.05;75.65;56893.44;5055485;28;20108;-83
2023/07/23 01:09:07;;;;;;;7.72;3.97;;;15.90;99.90;;;-144.05;74.89;56872.19;5055198;28;20037;-82
2023/07/23 01:11:35;;;;;;;5.53;3.83;;;15.90;99.90;;;-144.05;74.69;56870.06;5037291;28;20437;-82
2023/07/23 01:14:05;;;;;;;6.10;3.78;;;16.00;99.90;;;-144.05;74.73;56861.56;5053975;28;20029;-83
2023/07/23 01:16:33;;;;;;;6.85;4.00;;;15.90;99.90;;;-144.05;75.07;56878.56;5037801;28;20485;-82
2023/07/23 01:18:59;;;;;;;6.25;3.97;;;15.90;99.90;;;-144.05;75.71;56863.69;5037276;28;20033;-83
2023/07/23 01:21:27;;;;;;;8.73;4.38;;;15.90;99.90;;;-144.05;75.63;56867.94;5053813;28;20041;-83
2023/07/23 01:23:54;;;;;;;7.43;4.07;;;15.90;99.90;;;-144.05;75.08;56882.81;5038267;28;20028;-84
2023/07/23 01:26:21;;;;;;;8.15;4.43;;;15.90;99.90;;;-144.05;75.10;56861.56;5039135;28;20106;-84
2023/07/23 01:28:47;;;;;;;8.80;4.45;;;15.90;99.90;;;-144.05;75.00;56842.47;5054652;28;20498;-84
2023/07/23 01:31:13;;;;;;;5.55;4.05;;;15.90;99.90;;;-144.05;74.21;56897.69;5054641;28;20025;-84
2023/07/23 01:33:43;;;;;;;6.20;4.15;;;15.90;99.90;;;-144.05;73.94;56872.19;5055026;28;20021;-86
2023/07/23 01:36:10;;;;;;;8.65;4.45;;;15.90;99.90;;;-144.05;73.40;56850.97;5055423;28;20029;-84
2023/07/23 01:38:37;;;;;;;7.93;4.32;;;16.00;99.90;;;-144.05;73.22;56874.31;5055164;28;20033;-86
2023/07/23 01:41:04;;;;;;;7.13;4.35;;;15.90;99.90;;;-144.05;72.92;56857.34;5055527;28;20036;-83
2023/07/23 01:43:30;;;;;;;8.15;4.30;;;16.00;99.90;;;-144.05;72.70;56874.31;5056748;28;20021;-86
2023/07/23 01:45:56;;;;;;;9.13;4.00;;;16.00;99.90;;;-144.05;73.00;56904.06;5055981;28;20465;-86
2023/07/23 01:48:23;;;;;;;6.60;4.38;;;16.00;99.90;;;-144.05;72.63;56895.56;5055522;28;20036;-85
2023/07/23 01:50:50;;;;;;;7.93;4.07;;;16.00;99.90;;;-144.05;72.53;56882.81;5055759;28;20481;-86
2023/07/23 01:53:16;;;;;;;11.05;4.05;;;16.00;99.90;;;-144.05;72.62;56857.34;5056454;28;20043;-85
2023/07/23 01:55:42;;;;;;;8.48;4.40;;;16.00;99.90;;;-144.05;72.73;56876.44;5059393;28;20036;-84
2023/07/23 01:58:08;;;;;;;7.18;4.50;;;16.00;99.90;;;-144.05;72.57;56853.09;5076886;28;20021;-82
2023/07/23 02:00:33;;;;;;;9.80;4.55;;;16.00;99.90;;;-144.05;72.10;56853.09;5070862;28;20037;-83
2023/07/23 02:02:59;;;;;;;6.97;4.03;;;16.00;99.90;;;-144.05;71.51;56878.56;5052811;28;20522;-82
2023/07/23 02:05:25;;;;;;;6.93;4.82;;;16.10;99.90;;;-144.05;71.49;56836.09;5053861;28;20033;-84
2023/07/23 02:07:51;;;;;;;7.07;4.22;;;16.10;99.90;;;-144.05;71.35;56846.72;5052413;28;20028;-84
2023/07/23 02:10:20;;;;;;;5.88;3.85;;;16.00;99.90;;;-144.05;71.01;56884.94;5052356;28;20017;-83
2023/07/23 02:12:46;;;;;;;8.25;4.32;;;16.10;99.90;;;-144.05;70.48;56870.06;5053563;28;20427;-82
2023/07/23 02:15:13;;;;;;;5.90;3.83;;;16.10;99.90;;;-144.05;69.62;56861.56;5051753;28;20039;-83
2023/07/23 02:17:39;;;;;;;7.20;4.35;;;16.10;99.90;;;-144.05;70.49;56867.94;5051709;28;20029;-84
2023/07/23 02:20:06;;;;;;;6.80;4.70;;;16.10;99.90;;;-144.05;69.72;56878.56;5052199;28;20051;-82
2023/07/23 02:22:33;;;;;;;7.50;4.60;;;16.10;99.90;;;-144.05;69.16;56846.72;5051834;28;20068;-84
2023/07/23 02:24:59;;;;;;;7.45;4.57;;;16.20;99.90;;;-144.05;68.74;56861.56;5052236;28;20025;-83
2023/07/23 02:27:25;;;;;;;7.93;4.20;;;16.20;99.90;;;-144.05;68.62;56844.59;5055241;28;20028;-83
2023/07/23 02:29:51;;;;;;;6.80;4.38;;;16.20;99.90;;;-144.05;67.95;56855.22;5055309;28;20102;-84
2023/07/23 02:32:17;;;;;;;9.18;4.25;;;16.20;99.90;;;-144.05;67.62;56859.47;5055158;28;20035;-82
2023/07/23 02:34:42;;;;;;;6.97;4.47;;;16.30;99.90;;;-144.05;67.68;56865.81;5055460;28;20025;-83
2023/07/23 02:37:08;;;;;;;6.90;4.55;;;16.20;99.90;;;-144.05;67.50;56857.34;5055008;28;20123;-82
2023/07/23 02:39:34;;;;;;;7.13;4.43;;;16.30;99.90;;;-144.05;67.13;56861.56;5055251;28;20029;-83
2023/07/23 02:42:00;;;;;;;7.70;4.38;;;16.20;99.90;;;-144.05;67.13;56889.19;5055676;28;20028;-83
2023/07/23 02:44:26;;;;;;;8.05;4.20;;;16.30;99.90;;;-144.05;67.02;56876.44;5055737;28;20067;-83
2023/07/23 02:46:52;;;;;;;8.30;4.70;;;16.30;99.90;;;-144.05;66.48;56880.69;5086001;28;20046;-81
2023/07/23 02:49:18;;;;;;;7.70;4.45;;;16.30;99.90;;;-144.05;65.96;56870.06;5089579;28;20036;-83
2023/07/23 02:51:44;;;;;;;9.43;4.45;;;16.30;99.90;;;-144.05;65.80;56861.56;5072952;28;20388;-81
2023/07/23 02:54:10;;;;;;;7.53;4.22;;;16.30;99.90;;;-144.05;64.86;56878.56;5055264;28;20033;-83
2023/07/23 02:56:36;;;;;;;8.10;3.97;;;16.40;99.90;;;-144.05;64.26;56865.81;5063854;28;20016;-84
2023/07/23 02:59:04;;;;;;;7.38;4.50;;;16.50;99.90;;;-144.05;63.60;56870.06;5085427;28;20024;-85
2023/07/23 03:01:31;;;;;;;7.10;4.55;;;16.50;99.90;;;-144.05;63.07;56882.81;5083664;28;20017;-84
2023/07/23 03:03:57;;;;;;;10.23;5.10;;;16.50;99.90;;;-144.05;63.21;56855.22;5068977;28;20070;-85
2023/07/23 03:06:23;;;;;;;6.85;4.43;;;16.60;99.90;;;-144.05;62.72;56874.31;5066929;28;20120;-84
2023/07/23 03:08:48;;;;;;;5.88;4.00;;;16.60;99.90;;;-144.05;62.58;56872.19;5054550;28;20029;-82
2023/07/23 03:11:14;;;;;;;5.90;4.00;;;16.60;99.90;;;-144.05;62.18;56838.22;5054735;28;20024;-83
2023/07/23 03:13:40;;;;;;;7.10;4.20;;;16.60;99.90;;;-144.05;61.86;56861.56;5054800;28;20032;-83
2023/07/23 03:16:06;;;;;;;7.07;3.53;;;16.70;99.90;;;-144.05;60.94;56884.94;5054323;28;20043;-82
2023/07/23 03:18:32;;;;;;;8.23;4.05;;;16.70;99.90;;;-144.05;60.14;56878.56;5054114;28;20119;-83
2023/07/23 03:20:58;;;;;;;6.63;4.05;;;16.80;99.90;;;-144.05;60.08;56861.56;5054245;28;20028;-82
2023/07/23 03:23:24;;;;;;;7.72;4.85;;;16.80;99.90;;;-144.05;59.57;56872.19;5054333;28;20396;-83
2023/07/23 03:25:50;;;;;;;5.90;4.32;;;16.90;99.90;;;-144.05;58.70;56882.81;5054374;28;20029;-82
2023/07/23 03:28:16;;;;;;;6.65;4.10;;;16.90;99.90;;;-144.05;58.46;56904.06;5053958;28;20131;-82
2023/07/23 03:30:42;;;;;;;5.38;4.28;;;16.90;99.90;;;-144.05;57.61;56884.94;5054319;28;20032;-83
2023/07/23 03:33:08;;;;;;;7.78;4.82;;;17.10;99.90;;;-144.05;57.52;56861.56;5072157;28;20346;-83
2023/07/23 03:35:34;;;;;;;7.03;4.22;;;17.20;99.90;;;-144.05;57.05;56874.31;5054155;28;20032;-82
2023/07/23 03:37:59;;;;;;;8.80;3.50;;;17.20;99.90;;;-144.05;56.37;56887.06;5071867;28;20039;-83
2023/07/23 03:40:25;;;;;;;5.60;4.00;;;17.20;99.90;;;-144.05;56.39;56867.94;5072280;28;20039;-84
2023/07/23 03:42:51;;;;;;;6.50;3.78;;;17.20;99.90;;;-144.05;55.98;56884.94;5054176;28;20079;-83
2023/07/23 03:45:17;;;;;;;8.90;3.95;;;17.30;99.90;;;-144.05;55.39;56893.44;5054333;28;20063;-83
2023/07/23 03:47:43;;;;;;;6.95;4.15;;;17.30;99.90;;;-144.05;54.83;56887.06;5054212;28;20449;-83
2023/07/23 03:50:09;;;;;;;10.30;4.35;;;17.40;99.90;;;-144.05;54.46;56878.56;5054344;28;20032;-83
2023/07/23 03:52:35;;;;;;;6.22;4.00;;;17.40;99.90;;;-144.05;54.46;56853.09;5054048;28;20484;-83
2023/07/23 03:55:01;;;;;;;6.65;4.20;;;17.50;99.90;;;-144.05;54.41;56893.44;5053681;28;20114;-83
2023/07/23 03:57:27;;;;;;;7.40;4.20;;;17.50;99.90;;;-144.05;53.87;56887.06;5053605;28;20112;-82
2023/07/23 03:59:52;;;;;;;6.68;3.90;;;17.60;99.90;;;-144.05;53.23;56895.56;5053821;28;20060;-82
2023/07/23 04:02:18;;;;;;;6.93;4.07;;;17.60;99.90;;;-144.05;53.40;56870.06;5053441;28;20032;-83
2023/07/23 04:04:44;;;;;;;7.47;4.03;;;17.60;99.90;;;-144.05;52.60;56906.19;5054145;28;20078;-83
2023/07/23 04:07:10;;;;;;;6.80;3.58;;;17.70;99.90;;;-144.05;52.41;56897.69;5053962;28;20457;-82
2023/07/23 04:09:37;;;;;;;8.63;4.07;;;17.80;99.90;;;-144.05;52.64;56870.06;5053587;28;20064;-82
2023/07/23 04:12:03;;;;;;;6.35;4.05;;;17.70;99.90;;;-144.05;52.85;56861.56;5071612;28;20420;-84
2023/07/23 04:14:29;;;;;;;5.03;3.83;;;17.70;99.90;;;-144.05;51.93;56857.34;5053836;28;20563;-82
2023/07/23 04:16:55;;;;;;;5.80;3.60;;;17.70;99.90;;;-144.05;52.31;56872.19;5053566;28;20193;-84
2023/07/23 04:19:23;;;;;;;8.15;3.83;;;17.80;99.90;;;-144.05;51.82;56863.69;5053616;28;20028;-83
2023/07/23 04:21:49;;;;;;;8.43;3.97;;;17.80;99.90;;;-144.05;51.83;56895.56;5053640;28;20431;-81
2023/07/23 04:24:15;;;;;;;6.85;3.85;;;17.80;99.90;;;-144.05;52.09;56878.56;5053513;28;20036;-84
2023/07/23 04:26:41;;;;;;;5.95;3.83;;;17.90;99.90;;;-144.05;51.97;56867.94;5064316;28;20044;-84
2023/07/23 04:29:08;;;;;;;5.70;3.50;;;17.90;99.90;;;-144.05;51.44;56878.56;5049964;28;20025;-83
2023/07/23 04:31:34;;;;;;;4.47;3.35;;;18.00;99.90;;;-144.05;51.01;56889.19;5049971;28;20029;-83
2023/07/23 04:34:00;;;;;;;6.45;3.80;;;18.00;99.90;;;-144.05;51.45;56861.56;5050140;28;20043;-83
2023/07/23 04:36:28;;;;;;;6.93;3.60;;;18.10;99.90;;;-144.05;51.08;56893.44;5050260;28;20029;-83
2023/07/23 04:38:54;;;;;;;6.70;3.83;;;18.10;99.90;;;-144.05;50.83;56870.06;5051159;28;20029;-84
2023/07/23 04:41:20;;;;;;;6.93;3.70;;;18.10;99.90;;;-144.05;50.85;56853.09;5073346;28;20013;-83
2023/07/23 04:43:46;;;;;;;7.50;4.13;;;18.10;99.90;;;-144.05;51.10;56910.44;5063879;28;20114;-83
2023/07/23 04:46:12;;;;;;;5.05;3.55;;;18.10;99.90;;;-144.05;50.68;56878.56;5055918;28;20025;-83
2023/07/23 04:48:38;;;;;;;6.93;3.65;;;18.10;99.90;;;-144.05;50.45;56887.06;5054747;28;20360;-83
2023/07/23 04:51:08;;;;;;;8.25;3.47;;;18.20;99.90;;;-144.05;50.14;56878.56;5054669;28;20060;-83
2023/07/23 04:53:34;;;;;;;6.97;4.10;;;18.20;99.90;;;-144.05;50.47;56889.19;5054542;28;20132;-84
2023/07/23 04:56:04;;;;;;;6.47;3.65;;;18.20;99.90;;;-144.05;50.33;56880.69;5054667;28;20099;-83
2023/07/23 04:58:31;;;;;;;5.97;4.20;;;18.30;99.90;;;-144.05;49.81;56893.44;5056353;28;20056;-82
2023/07/23 05:01:05;;;;;;;7.72;3.33;;;18.30;99.90;;;-144.05;49.59;56889.19;5054598;28;20378;-83
2023/07/23 05:03:31;;;;;;;6.30;3.60;;;18.30;99.90;;;-144.05;50.14;56889.19;5056601;28;20037;-84
2023/07/23 05:06:04;;;;;;;5.05;3.42;;;18.30;99.90;;;-144.05;50.62;56880.69;5054882;28;20063;-85
2023/07/23 05:08:32;;;;;;;5.75;3.95;;;18.40;99.90;;;-144.05;49.95;56887.06;5054432;28;20503;-84
2023/07/23 05:11:00;;;;;;;5.63;3.95;;;18.40;99.90;;;-144.05;49.60;56887.06;5054743;28;20039;-83
2023/07/23 05:13:28;;;;;;;9.43;4.05;;;18.40;99.90;;;-144.05;49.95;56884.94;5055140;28;20500;-84
2023/07/23 05:15:57;;;;;;;8.30;3.60;;;18.40;99.90;;;-144.05;49.57;56908.31;5055686;28;20029;-84
2023/07/23 05:18:24;;;;;;;5.38;3.10;;;18.40;99.90;;;-144.05;49.42;56895.56;5054851;28;20070;-84
2023/07/23 05:20:50;;;;;;;4.85;3.35;;;18.50;99.90;;;-144.05;50.02;56842.47;5055263;28;20028;-84
2023/07/23 05:23:17;;;;;;;5.95;3.60;;;18.50;99.90;;;-144.05;49.52;56882.81;5056399;28;20033;-85
2023/07/23 05:25:44;;;;;;;5.88;3.50;;;18.60;99.90;;;-144.05;48.78;56901.94;5055726;28;20036;-85
2023/07/23 05:28:11;;;;;;;5.85;3.70;;;18.60;99.90;;;-144.05;49.48;56872.19;5058607;28;20029;-85
2023/07/23 05:30:38;;;;;;;4.90;3.20;;;18.60;99.90;;;-144.05;49.45;56887.06;5076401;28;20485;-84
2023/07/23 05:33:04;;;;;;;6.22;3.33;;;18.60;99.90;;;-144.05;49.45;56893.44;5058978;28;20028;-82
2023/07/23 05:35:30;;;;;;;6.15;3.28;;;18.60;99.90;;;-144.05;49.30;56884.94;5084994;28;20092;-84
2023/07/23 05:37:56;;;;;;;5.18;3.38;;;18.60;99.90;;;-144.05;49.22;56882.81;5094809;28;20218;-85
2023/07/23 05:40:22;;;;;;;6.95;3.22;;;18.60;99.90;;;-144.05;49.14;56882.81;5095485;28;20020;-84
2023/07/23 05:42:48;;;;;;;5.72;3.53;;;18.70;99.90;;;-144.05;49.02;56908.31;5077097;28;20032;-85
2023/07/23 05:45:14;;;;;;;5.75;3.15;;;18.70;99.90;;;-144.05;48.01;56889.19;5068149;28;20063;-86
2023/07/23 05:47:39;;;;;;;6.05;3.20;;;18.80;99.90;;;-144.05;48.27;56863.69;5073677;28;20017;-82
2023/07/23 05:50:06;;;;;;;7.40;3.28;;;18.90;99.90;;;-144.05;48.13;56882.81;5081295;28;20032;-82
2023/07/23 05:52:32;;;;;;;8.57;3.45;;;18.90;99.90;;;-144.05;47.97;56880.69;5063305;28;20093;-84
2023/07/23 05:54:58;;;;;;;5.13;3.42;;;18.90;99.90;;;-144.05;47.26;56910.44;5059027;28;20669;-83
2023/07/23 05:57:24;;;;;;;4.80;2.78;;;19.00;99.90;;;-144.05;47.13;56904.06;5059257;28;20020;-84
2023/07/23 05:59:50;;;;;;;5.00;3.00;;;19.10;99.90;;;-144.05;47.30;56906.19;5060732;28;20078;-83
2023/07/23 06:02:16;;;;;;;5.20;2.90;;;19.10;99.90;;;-144.05;46.76;56884.94;5059839;28;20032;-83
2023/07/23 06:04:42;;;;;;;4.85;2.90;;;19.20;99.90;;;-144.05;47.38;56904.06;5077211;28;20484;-84
2023/07/23 06:07:08;;;;;;;3.72;3.08;;;19.20;99.90;;;-144.05;46.37;56914.69;5058029;28;20387;-82
2023/07/23 06:09:33;;;;;;;4.88;3.05;;;19.20;99.90;;;-144.05;46.66;56884.94;5058299;28;20052;-83
2023/07/23 06:11:59;;;;;;;6.53;2.58;;;19.20;99.90;;;-144.05;46.05;56891.31;5057919;28;20420;-83
2023/07/23 06:14:25;;;;;;;3.75;2.75;;;19.30;99.90;;;-144.05;46.76;56901.94;5058282;28;20033;-82
2023/07/23 06:16:51;;;;;;;4.72;2.78;;;19.30;99.90;;;-144.05;46.29;56889.19;5075868;28;20032;-83
2023/07/23 06:19:17;;;;;;;3.92;2.72;;;19.30;99.90;;;-144.05;46.05;56874.31;5058064;28;20033;-83
2023/07/23 06:21:43;;;;;;;7.75;2.47;;;19.40;99.90;;;-144.05;45.52;56880.69;5058945;28;20101;-86
2023/07/23 06:24:09;;;;;;;4.13;2.83;;;19.50;99.90;;;-144.05;45.50;56904.06;5058383;28;20039;-86
2023/07/23 06:26:35;;;;;;;3.60;2.50;;;19.60;99.90;;;-144.05;44.97;56916.81;5055550;28;20088;-86
2023/07/23 06:29:01;;;;;;;4.13;2.92;;;19.70;99.90;;;-144.05;45.56;56904.06;5055415;28;20133;-85
2023/07/23 06:31:27;;;;;;;6.40;2.72;;;19.70;99.90;;;-144.05;45.27;56908.31;5056166;28;20037;-84
2023/07/23 06:33:52;;;;;;;3.00;2.03;;;19.70;99.90;;;-144.05;45.50;56908.31;5063437;28;20037;-77
2023/07/23 06:36:18;;;;;;;5.10;2.60;;;19.70;99.90;;;-144.05;45.87;56897.69;5073996;28;20412;-84
2023/07/23 06:38:45;;;;;;;5.60;2.97;;;19.70;99.90;;;-144.05;44.79;56876.44;5054268;28;20119;-86
2023/07/23 06:41:10;;;;;;;3.42;2.30;;;19.90;99.90;;;-144.05;45.14;56901.94;5056389;28;20056;-85
2023/07/23 06:43:36;;;;;;;3.80;2.60;;;20.10;99.90;;;-144.05;44.91;56929.53;5055900;28;20044;-85
2023/07/23 06:46:02;;;;;;;5.18;2.72;;;20.30;99.90;;;-144.05;43.60;56910.44;5056894;28;20033;-83
2023/07/23 06:48:28;;;;;;;5.47;2.80;;;20.50;99.90;;;-144.05;42.72;56882.81;5057650;28;20068;-81
2023/07/23 06:50:57;;;;;;;5.43;2.92;;;20.60;99.90;;;-144.05;43.05;56914.69;5057055;28;20090;-85
2023/07/23 06:53:23;;;;;;;7.25;2.70;;;20.70;99.90;;;-144.05;41.79;56921.06;5057335;28;20021;-85
2023/07/23 06:56:06;;;;;;;4.60;2.63;;;20.80;99.90;;;-144.05;42.51;56916.81;5057427;28;20052;-86
2023/07/23 06:58:37;;;;;;;6.30;3.10;;;21.00;99.90;;;-144.05;42.83;56931.66;5056296;28;20032;-86
2023/07/23 07:01:08;;;;;;;4.70;3.10;;;21.00;99.90;;;-144.05;42.46;56908.31;5057120;28;20051;-84
2023/07/23 07:03:34;;;;;;;6.00;2.75;;;21.00;99.90;;;-144.05;43.01;56899.81;5056500;28;20029;-85
2023/07/23 07:06:00;;;;;;;6.13;2.80;;;20.80;99.90;;;-144.05;43.01;56918.94;5058138;28;20515;-85
2023/07/23 07:08:30;;;;;;;3.08;2.47;;;20.80;99.90;;;-144.05;43.23;56916.81;5055995;28;20033;-85
2023/07/23 07:11:02;;;;;;;6.25;2.80;;;20.70;99.90;;;-144.05;42.85;56908.31;5056457;28;20025;-86
2023/07/23 07:13:30;;;;;;;4.43;2.22;;;20.70;99.90;;;-144.05;43.05;56899.81;5057542;28;20025;-85
2023/07/23 07:15:56;;;;;;;4.28;2.40;;;20.80;99.90;;;-144.05;42.79;56914.69;5056638;28;20082;-87
2023/07/23 07:18:25;;;;;;;5.82;2.53;;;20.80;99.90;;;-144.05;41.30;56921.06;5056049;28;20032;-85
2023/07/23 07:20:59;;;;;;;5.93;2.60;;;20.90;99.90;;;-144.05;41.69;56931.66;5055930;28;20033;-86
2023/07/23 07:23:31;;;;;;;4.57;2.60;;;21.20;99.90;;;-144.05;41.31;56918.94;5054896;28;20428;-85
2023/07/23 07:26:00;;;;;;;8.75;2.90;;;21.20;99.90;;;-144.05;41.83;56925.28;5053295;28;20056;-83
2023/07/23 07:28:29;;;;;;;3.47;2.75;;;21.30;99.90;;;-144.05;40.91;56946.53;5055584;28;20024;-86
2023/07/23 07:31:01;;;;;;;2.95;2.25;;;21.30;99.90;;;-144.05;41.57;56942.28;5055371;28;20032;-82
2023/07/23 07:33:28;;;;;;;4.18;2.45;;;21.30;99.90;;;-144.05;40.71;56925.28;5056081;28;20218;-85
2023/07/23 07:35:58;;;;;;;4.25;2.25;;;21.40;99.90;;;-144.05;41.61;56908.31;5057093;28;20066;-83
2023/07/23 07:38:26;;;;;;;4.63;3.00;;;21.40;99.90;;;-144.05;42.82;56912.56;5056611;28;20055;-85
2023/07/23 07:40:53;;;;;;;4.65;2.63;;;21.20;99.90;;;-144.05;42.68;56895.56;5074236;28;20098;-86
2023/07/23 07:43:19;;;;;;;3.92;2.70;;;21.10;99.90;;;-144.05;42.65;56950.78;5075198;28;20024;-85
2023/07/23 07:45:51;;;;;;;7.40;2.90;;;21.10;99.90;;;-144.05;40.55;56910.44;5075442;28;20038;-87
2023/07/23 07:48:20;;;;;;;5.45;2.95;;;21.20;99.90;;;-144.05;41.74;56938.03;5057004;28;20055;-85
2023/07/23 07:50:58;;;;;;;6.18;2.72;;;21.10;99.90;;;-144.05;43.23;56914.69;5056908;28;20028;-84
2023/07/23 07:53:24;;;;;;;3.42;2.72;;;20.70;99.90;;;-144.05;44.58;56878.56;5058033;28;20119;-84
2023/07/23 07:55:50;;;;;;;3.33;2.53;;;20.30;99.90;;;-144.05;44.93;56884.94;5057219;28;20035;-84
2023/07/23 07:58:17;;;;;;;5.70;2.78;;;20.00;99.90;;;-144.05;45.60;56893.44;5057684;28;20048;-85
2023/07/23 08:00:43;;;;;;;7.97;3.40;;;19.80;99.90;;;-144.05;46.13;56895.56;5058940;28;20025;-84
2023/07/23 08:03:10;;;;;;;3.72;2.85;;;19.70;99.90;;;-144.05;46.35;56899.81;5057632;28;20048;-87
2023/07/23 08:05:37;;;;;;;4.82;3.00;;;19.70;99.90;;;-144.05;46.14;56910.44;5076427;28;20038;-86
2023/07/23 08:08:06;;;;;;;4.93;2.70;;;19.60;99.90;;;-144.05;46.74;56912.56;5074507;28;20028;-85
2023/07/23 08:10:35;;;;;;;5.07;2.80;;;19.60;99.90;;;-144.05;47.27;56887.06;5074389;28;20082;-82
2023/07/23 08:13:04;;;;;;;5.72;3.00;;;19.50;99.90;;;-144.05;48.25;56895.56;5056643;28;20048;-84
2023/07/23 08:15:31;;;;;;;7.93;3.03;;;19.40;99.90;;;-144.05;48.92;56889.19;5056224;28;20056;-85
2023/07/23 08:17:59;;;;;;;4.32;2.75;;;19.30;99.90;;;-144.05;48.03;56884.94;5056227;28;20392;-83
2023/07/23 08:20:32;;;;;;;3.63;2.75;;;19.30;99.90;;;-144.05;47.50;56884.94;5074172;28;20108;-85
2023/07/23 08:22:59;;;;;;;4.38;2.53;;;19.30;99.90;;;-144.05;47.17;56916.81;5055112;28;20025;-85
2023/07/23 08:25:25;;;;;;;3.53;2.80;;;19.30;99.90;;;-144.05;47.57;56906.19;5057619;28;20479;-77
2023/07/23 08:28:00;;;;;;;4.13;2.53;;;19.40;99.90;;;-144.05;47.24;56904.06;5075224;28;20078;-81
2023/07/23 08:30:30;;;;;;;3.58;2.40;;;19.30;99.90;;;-144.05;48.23;56893.44;5052052;28;20044;-84
2023/07/23 08:33:00;;;;;;;3.83;2.60;;;19.30;99.90;;;-144.05;48.77;56880.69;5052160;28;20083;-84
2023/07/23 08:35:29;;;;;;;4.70;2.63;;;19.10;99.90;;;-144.05;49.17;56891.31;5052628;28;20085;-85
2023/07/23 08:37:56;;;;;;;4.10;2.60;;;19.10;99.90;;;-144.05;49.32;56893.44;5053883;28;20033;-86
2023/07/23 08:40:26;;;;;;;3.13;2.40;;;19.10;99.90;;;-144.05;49.59;56904.06;5054306;28;20025;-85
2023/07/23 08:42:54;;;;;;;5.68;2.13;;;19.10;99.90;;;-144.05;50.08;56904.06;5052928;28;20040;-83
2023/07/23 08:46:31;;;;;;;6.05;2.63;;;19.10;99.90;;;-144.05;49.40;56887.06;5054487;28;20069;-85
2023/07/23 08:49:04;;;;;;;7.65;2.65;;;19.20;99.90;;;-144.05;49.07;56878.56;5012691;28;20078;-85
2023/07/23 08:51:45;;;;;;;7.57;2.63;;;19.20;99.90;;;-144.05;50.50;56897.69;5011815;28;20033;-85
2023/07/23 08:54:15;;;;;;;5.28;2.92;;;19.20;99.90;;;-144.05;49.66;56901.94;5035884;28;20090;-86
2023/07/23 08:56:43;;;;;;;4.47;2.42;;;19.40;99.90;;;-144.05;49.26;56882.81;5052401;28;20025;-84
2023/07/23 08:59:09;;;;;;;7.32;2.58;;;19.50;99.90;;;-144.05;49.09;56916.81;5051935;28;20025;-85
2023/07/23 09:01:41;;;;;;;3.55;2.55;;;19.50;99.90;;;-144.05;49.18;56914.69;5050580;28;20163;-85
2023/07/23 09:04:12;;;;;;;6.05;2.47;;;19.50;99.90;;;-144.05;50.41;56916.81;5053076;28;20412;-85
2023/07/23 09:06:43;;;;;;;4.57;2.58;;;19.20;99.90;;;-144.05;50.25;56880.69;5052478;28;20056;-81
2023/07/23 09:09:13;;;;;;;5.50;2.75;;;19.20;99.90;;;-144.05;50.82;56901.94;5051021;28;20060;-84
2023/07/23 09:11:40;;;;;;;5.38;2.90;;;19.20;99.90;;;-144.05;51.33;56897.69;5051201;28;20029;-84
2023/07/23 09:14:13;;;;;;;2.95;2.30;;;19.10;99.90;;;-144.05;51.56;56897.69;5052375;28;20044;-87
2023/07/23 09:16:46;;;;;;;5.88;2.63;;;19.00;99.90;;;-144.05;52.30;56918.94;5051169;28;20040;-84
2023/07/23 09:19:22;;;;;;;4.40;2.65;;;18.90;99.90;;;-144.05;52.78;56914.69;5050449;28;20029;-86
2023/07/23 09:21:48;;;;;;;4.50;2.53;;;18.90;99.90;;;-144.05;53.72;56901.94;5052737;28;20276;-85
2023/07/23 09:24:16;;;;;;;5.75;2.85;;;18.70;99.90;;;-144.05;54.34;56893.44;5055037;28;20485;-86
2023/07/23 09:26:44;;;;;;;5.07;3.22;;;18.70;99.90;;;-144.05;56.78;56876.44;5062275;28;20260;-87
2023/07/23 09:29:11;;;;;;;5.60;2.97;;;18.40;99.90;;;-144.05;58.27;56891.31;5062832;28;20032;-87
2023/07/23 09:31:44;;;;;;;4.78;2.60;;;18.20;99.90;;;-144.05;61.71;56859.47;5081440;28;20025;-86
2023/07/23 09:34:10;;;;;;;4.20;2.83;;;17.90;99.90;;;-144.05;61.10;56878.56;5063552;28;20028;-88
2023/07/23 09:36:36;;;;;;;4.35;2.60;;;17.90;99.90;;;-144.05;61.89;56887.06;5067685;28;20054;-88
2023/07/23 09:39:06;;;;;;;4.40;3.10;;;17.80;99.90;;;-144.05;65.48;56916.81;5080007;28;20031;-82
2023/07/23 09:41:37;;;;;;;4.78;2.97;;;17.40;99.90;;;-144.05;66.45;56870.06;5077374;28;20037;-84
2023/07/23 09:44:12;;;;;;;4.47;2.95;;;17.30;99.90;;;-144.05;68.29;56872.19;5057620;28;20377;-83
2023/07/23 09:46:46;;;;;;;4.20;2.80;;;17.30;99.90;;;-144.05;67.56;56880.69;5057346;28;20106;-84
2023/07/23 09:49:13;;;;;;;5.95;3.30;;;17.50;99.90;;;-144.05;70.32;56874.31;5057534;28;20062;-85
2023/07/23 09:51:51;;;;;;;4.13;2.67;;;17.50;99.90;;;-144.05;68.78;56887.06;5075496;28;20388;-84
2023/07/23 09:54:17;;;;;;;5.00;2.72;;;17.70;99.90;;;-144.05;70.40;56891.31;5058281;28;20238;-85
2023/07/23 09:56:46;;;;;;;6.82;3.20;;;17.50;99.90;;;-144.05;72.54;56865.81;5057786;28;20025;-83
2023/07/23 09:59:13;;;;;;;4.50;3.00;;;17.60;99.90;;;-144.05;72.46;56887.06;5074504;28;20032;-84
2023/07/23 10:01:40;;;;;;;5.25;2.75;;;17.70;99.90;;;-144.05;68.77;56889.19;5056726;28;20494;-85
2023/07/23 10:04:11;;;;;;;6.38;3.03;;;17.90;99.90;;;-144.05;68.43;56855.22;5074603;28;20032;-85
2023/07/23 10:06:37;;;;;;;3.85;2.63;;;17.90;99.90;;;-144.05;67.59;56895.56;5073038;28;20039;-85